Weather History for Rolla, ND

Change the Weather History Date:

Sunday, December 30, 2012

  Actual Average (KRUG) Record (KRUG)
Temperature  
Mean Temperature 10 °F -  
Max Temperature 21 °F 14 °F 39 °F (1980)
Min Temperature -2 °F -3 °F -37 °F (1990)
Degree Days  
Heating Degree Days 54    
Moisture  
Dew Point 11 °F    
Average Humidity 92    
Maximum Humidity 100    
Minimum Humidity 78    
Precipitation  
Precipitation 0.48 in - - ()
Sea Level Pressure  
Sea Level Pressure 29.92 in    
Wind  
Wind Speed 12 mph (NW)    
Max Wind Speed 25 mph    
Max Gust Speed 30 mph    
Visibility 9 miles    
Events Rain , Snow    
Averages and records for this station are not official NWS values.
T = Trace of Precipitation, MM = Missing Value Source: NWS Daily Summary

Daily Weather History Graph

Daily Weather History Graph

Search for Another Location

Airport:

Trip Planner

Search our weather history database for the weather conditions in past years. The results will help you decide how hot, cold, wet, or windy it might be!

Date:

Astronomy

Dec. 30, 2012 Rise Set
Actual Time 8:32 AM CST 4:50 PM CST
Civil Twilight 7:54 AM CST 5:27 PM CST
Nautical Twilight 7:14 AM CST 6:08 PM CST
Astronomical Twilight 6:36 AM CST 6:46 PM CST
Moon 7:37 PM CST (12/30) 9:29 AM CST (12/30)
Length of Visible Light 9h 32m
Length of Day
8h 18m
Waning Gibbous, 95% of the Moon is Illuminated
Dec 30
Waning Gibbous
Jan 4
Last Quarter
Jan 11
New
Jan 18
First Quarter
Jan 26
Full

Hourly Weather History & Observations

Time (CST) Temp. Windchill Dew Point Humidity Pressure Visibility Wind Dir Wind Speed Gust Speed Precip Events Conditions
12:15 AM 14.0 °F -2.5 °F 14.0 °F 100% 29.87 in 10.0 mi WSW 17.3 mph - N/A   Overcast
12:35 AM 15.8 °F 0.9 °F 14.0 °F 93% 29.88 in 10.0 mi WSW 15.0 mph - N/A   Overcast
12:55 AM 15.8 °F 0.9 °F 15.8 °F 100% 29.88 in 10.0 mi WSW 15.0 mph - N/A   Overcast
1:15 AM 15.8 °F 4.2 °F 15.8 °F 100% 29.88 in 10.0 mi WSW 9.2 mph - N/A   Overcast
1:35 AM 15.8 °F 7.2 °F 14.0 °F 93% 29.88 in 10.0 mi WSW 5.8 mph - N/A   Overcast
1:55 AM 15.8 °F 5.1 °F 15.8 °F 100% 29.87 in 10.0 mi WSW 8.1 mph - N/A   Overcast
2:15 AM 15.8 °F 5.1 °F 14.0 °F 93% 29.87 in 10.0 mi SW 8.1 mph - N/A   Overcast
2:35 AM 15.8 °F - 14.0 °F 93% 29.87 in 10.0 mi Calm Calm - N/A   Overcast
2:55 AM 17.6 °F 12.3 °F 15.8 °F 93% 29.87 in 10.0 mi East 3.5 mph - N/A   Overcast
3:15 AM 17.6 °F 12.3 °F 15.8 °F 93% 29.87 in 10.0 mi SSW 3.5 mph - N/A   Overcast
3:35 AM 17.6 °F 10.7 °F 15.8 °F 93% 29.87 in 10.0 mi WSW 4.6 mph - N/A   Overcast
3:55 AM 19.4 °F 7.2 °F 17.6 °F 93% 29.87 in 10.0 mi WSW 11.5 mph - N/A   Overcast
4:15 AM 19.4 °F 14.3 °F 17.6 °F 93% 29.86 in 10.0 mi East 3.5 mph - N/A   Overcast
4:35 AM 19.4 °F 14.3 °F 17.6 °F 93% 29.85 in 10.0 mi SSE 3.5 mph - N/A   Overcast
4:55 AM 19.4 °F 7.2 °F 17.6 °F 93% 29.84 in 10.0 mi SW 11.5 mph - N/A   Overcast
5:15 AM 17.6 °F 4.3 °F 17.6 °F 100% 29.85 in 10.0 mi WSW 12.7 mph - N/A   Overcast
5:35 AM 19.4 °F 10.4 °F 17.6 °F 93% 29.86 in 10.0 mi West 6.9 mph - N/A   Overcast
5:55 AM 17.6 °F 9.3 °F 15.8 °F 93% 29.85 in 10.0 mi SSW 5.8 mph - N/A   Overcast
6:15 AM 17.6 °F 5.7 °F 15.8 °F 93% 29.86 in 10.0 mi WSW 10.4 mph - N/A   Overcast
6:35 AM 17.6 °F 10.7 °F 15.8 °F 93% 29.86 in 10.0 mi WSW 4.6 mph - N/A   Overcast
6:55 AM 17.6 °F 8.2 °F 15.8 °F 93% 29.86 in 10.0 mi SW 6.9 mph - N/A   Overcast
7:15 AM 17.6 °F 8.2 °F 15.8 °F 93% 29.85 in 10.0 mi WSW 6.9 mph - N/A   Overcast
7:35 AM 17.6 °F 6.4 °F 17.6 °F 100% 29.85 in 10.0 mi WSW 9.2 mph - N/A   Overcast
7:55 AM 19.4 °F 11.5 °F 17.6 °F 93% 29.85 in 10.0 mi WSW 5.8 mph - N/A   Overcast
8:15 AM 19.4 °F 12.8 °F 17.6 °F 93% 29.85 in 7.0 mi WSW 4.6 mph - N/A Snow Light Snow
8:35 AM 19.4 °F 14.3 °F 17.6 °F 93% 29.85 in 10.0 mi SW 3.5 mph - 0.01 in Snow Light Snow
8:55 AM 19.4 °F 12.8 °F 17.6 °F 93% 29.85 in 10.0 mi WNW 4.6 mph - 0.01 in Snow Light Snow
9:15 AM 19.4 °F 12.8 °F 19.4 °F 100% 29.86 in 10.0 mi WNW 4.6 mph - N/A Snow Light Snow
9:35 AM 19.4 °F 12.8 °F 19.4 °F 100% 29.86 in 10.0 mi WNW 4.6 mph - N/A   Mostly Cloudy
9:55 AM 19.4 °F 14.3 °F 19.4 °F 100% 29.86 in 10.0 mi South 3.5 mph - N/A   Mostly Cloudy
10:15 AM 19.4 °F 14.3 °F 19.4 °F 100% 29.87 in 10.0 mi North 3.5 mph - N/A   Mostly Cloudy
10:35 AM 19.4 °F 14.3 °F 19.4 °F 100% 29.88 in 10.0 mi NNE 3.5 mph - N/A   Overcast
10:55 AM 21.2 °F 9.5 °F 19.4 °F 93% 29.88 in 10.0 mi NNW 11.5 mph - N/A   Mostly Cloudy
11:15 AM 19.4 °F 5.5 °F 19.4 °F 100% 29.88 in 10.0 mi NNW 15.0 mph - N/A   Partly Cloudy
11:35 AM 19.4 °F 5.0 °F 19.4 °F 100% 29.87 in 10.0 mi NNW 16.1 mph - N/A   Clear
11:55 AM 19.4 °F 4.5 °F 17.6 °F 93% 29.88 in 10.0 mi NNW 17.3 mph - N/A   Partly Cloudy
12:15 PM 19.4 °F 3.2 °F 17.6 °F 93% 29.87 in 10.0 mi NNW 20.7 mph - N/A   Mostly Cloudy
12:35 PM 17.6 °F 1.3 °F 17.6 °F 100% 29.87 in 10.0 mi NNW 19.6 mph - N/A Snow Light Snow
12:55 PM 17.6 °F 1.3 °F 15.8 °F 93% 29.87 in 10.0 mi NNW 19.6 mph 25.3 mph N/A Snow Light Snow
1:15 PM 17.6 °F 2.2 °F 15.8 °F 93% 29.87 in 10.0 mi NNW 17.3 mph 24.2 mph N/A   Overcast
1:35 PM 15.8 °F -2.7 °F 14.0 °F 93% 29.87 in 10.0 mi NNW 24.2 mph 29.9 mph N/A   Overcast
1:55 PM 15.8 °F -3.1 °F 14.0 °F 93% 29.87 in 9.0 mi NNW 25.3 mph - N/A Snow Light Snow
2:15 PM 15.8 °F -1.1 °F 12.2 °F 86% 29.88 in 10.0 mi NNW 19.6 mph - N/A   Partly Cloudy
2:35 PM 14.0 °F -2.5 °F 10.4 °F 86% 29.88 in 10.0 mi NNW 17.3 mph - N/A   Mostly Cloudy
2:55 PM 14.0 °F -3.0 °F 12.2 °F 93% 29.88 in 10.0 mi NW 18.4 mph 23.0 mph N/A Snow Light Snow
3:15 PM 14.0 °F -2.5 °F 12.2 °F 93% 29.90 in 10.0 mi NNW 17.3 mph - N/A Snow Light Snow
3:35 PM 15.8 °F -1.1 °F 12.2 °F 86% 29.90 in 8.0 mi NNW 19.6 mph - 0.01 in Snow Light Snow
3:55 PM 14.0 °F -3.9 °F 12.2 °F 93% 29.91 in 1.5 mi NNW 20.7 mph 25.3 mph 0.12 in Snow Light Snow
4:15 PM 14.0 °F -3.4 °F 12.2 °F 93% 29.92 in 1.5 mi NNW 19.6 mph 25.3 mph 0.14 in Snow Light Snow
4:35 PM 12.2 °F -6.3 °F 10.4 °F 92% 29.93 in 2.5 mi NNW 20.7 mph - 0.22 in Snow Light Snow
4:55 PM 12.2 °F -5.3 °F 10.4 °F 92% 29.95 in 8.0 mi NNW 18.4 mph 21.9 mph 0.25 in Snow Light Snow
5:15 PM 10.4 °F -7.7 °F 8.6 °F 92% 29.96 in 3.0 mi NNW 18.4 mph 24.2 mph 0.02 in Snow Light Snow
5:35 PM 10.4 °F -8.2 °F 8.6 °F 92% 29.96 in 5.0 mi NNW 19.6 mph - 0.06 in Snow Light Snow
5:55 PM 10.4 °F -7.7 °F 6.8 °F 85% 29.98 in 5.0 mi NNW 18.4 mph 26.5 mph 0.10 in Snow Light Snow
6:15 PM 8.6 °F -12.3 °F 5.0 °F 85% 29.99 in 9.0 mi NNW 24.2 mph 27.6 mph N/A Snow Light Snow
6:35 PM 6.8 °F -13.4 °F 3.2 °F 85% 30.00 in 9.0 mi NNW 20.7 mph 24.2 mph N/A Rain Light Freezing Rain
6:55 PM 6.8 °F -12.4 °F 1.4 °F 79% 30.01 in 10.0 mi NNW 18.4 mph - N/A   Overcast
7:15 PM 3.2 °F -16.5 °F -0.4 °F 85% 30.02 in 10.0 mi NNW 17.3 mph 21.9 mph N/A   Scattered Clouds
7:35 PM 3.2 °F -15.9 °F -0.4 °F 85% 30.02 in 10.0 mi NNW 16.1 mph - N/A   Mostly Cloudy
7:55 PM 5.0 °F -13.6 °F -0.4 °F 78% 30.03 in 10.0 mi NNW 16.1 mph - N/A Snow Light Snow
8:15 PM 5.0 °F -15.2 °F -0.4 °F 78% 30.03 in 10.0 mi NNW 19.6 mph - N/A   Overcast
8:35 PM 3.2 °F -16.5 °F -0.4 °F 85% 30.04 in 10.0 mi NNW 17.3 mph - N/A Snow Light Snow
8:55 PM 3.2 °F -16.5 °F -0.4 °F 85% 30.05 in 10.0 mi NNW 17.3 mph - N/A   Overcast
9:15 PM 1.4 °F -18.8 °F -0.4 °F 92% 30.05 in 10.0 mi NNW 17.3 mph - N/A   Overcast
9:35 PM 1.4 °F -19.4 °F -2.2 °F 85% 30.06 in 10.0 mi NNW 18.4 mph - N/A   Overcast
9:55 PM 1.4 °F -18.8 °F -2.2 °F 85% 30.06 in 10.0 mi NNW 17.3 mph - N/A   Overcast
10:15 PM 1.4 °F -18.8 °F -2.2 °F 85% 30.07 in 10.0 mi NNW 17.3 mph - N/A   Overcast
10:35 PM -0.4 °F -19.2 °F -2.2 °F 92% 30.07 in 10.0 mi NNW 13.8 mph - N/A   Overcast
10:55 PM -0.4 °F -17.6 °F -4.0 °F 85% 30.08 in 10.0 mi NNW 11.5 mph - N/A   Mostly Cloudy
11:15 PM -0.4 °F -16.7 °F -4.0 °F 85% 30.09 in 10.0 mi NW 10.4 mph - N/A   Mostly Cloudy
11:35 PM -0.4 °F -15.7 °F -5.8 °F 78% 30.10 in 10.0 mi NW 9.2 mph - N/A   Overcast
11:55 PM -2.2 °F -19.9 °F -5.8 °F 85% 30.10 in 10.0 mi NNW 11.5 mph - N/A   Overcast